createdAt,value
2018-07-15T00:00:06.898Z,15.80
2018-07-15T00:02:35.601Z,15.80
2018-07-15T00:05:04.536Z,15.70
2018-07-15T00:07:33.253Z,15.70
2018-07-15T00:10:02.004Z,15.70
2018-07-15T00:12:30.747Z,15.70
2018-07-15T00:17:27.822Z,15.60
2018-07-15T00:19:56.556Z,15.60
2018-07-15T00:22:25.276Z,15.50
2018-07-15T00:24:53.985Z,15.40
2018-07-15T00:27:22.710Z,15.50
2018-07-15T00:29:51.429Z,15.40
2018-07-15T00:32:20.124Z,15.40
2018-07-15T00:34:48.834Z,15.40
2018-07-15T00:37:17.532Z,15.40
2018-07-15T00:39:46.254Z,15.30
2018-07-15T00:42:14.977Z,15.30
2018-07-15T00:44:43.688Z,15.20
2018-07-15T00:47:12.394Z,15.20
2018-07-15T00:49:41.117Z,15.20
2018-07-15T00:52:09.845Z,15.20
2018-07-15T00:54:38.564Z,15.20
2018-07-15T00:57:07.340Z,15.00
2018-07-15T01:02:04.494Z,15.00
2018-07-15T01:04:33.241Z,14.90
2018-07-15T01:07:02.009Z,14.90
2018-07-15T01:09:30.734Z,14.90
2018-07-15T01:11:59.497Z,14.80
2018-07-15T01:14:28.203Z,14.80
2018-07-15T01:16:56.921Z,14.70
2018-07-15T01:19:25.691Z,14.70
2018-07-15T01:21:54.440Z,14.70
2018-07-15T01:24:23.175Z,14.70
2018-07-15T01:26:51.989Z,14.60
2018-07-15T01:29:20.712Z,14.60
2018-07-15T01:31:49.421Z,14.70
2018-07-15T01:34:18.157Z,14.60
2018-07-15T01:36:46.849Z,14.60
2018-07-15T01:39:15.527Z,14.50
2018-07-15T01:41:44.244Z,14.50
2018-07-15T01:44:12.950Z,14.50
2018-07-15T01:46:41.692Z,14.40
2018-07-15T01:49:10.417Z,14.40
2018-07-15T01:51:39.113Z,14.40
2018-07-15T01:54:07.856Z,14.40
2018-07-15T01:56:36.581Z,14.30
2018-07-15T01:59:05.469Z,14.30
2018-07-15T02:01:34.205Z,14.30
2018-07-15T02:04:02.930Z,14.30
2018-07-15T02:06:31.635Z,14.20
2018-07-15T02:09:00.349Z,14.20
2018-07-15T02:11:29.094Z,14.20
2018-07-15T02:13:57.822Z,14.10
2018-07-15T02:16:26.704Z,14.10
2018-07-15T02:18:55.524Z,14.10
2018-07-15T02:21:24.268Z,14.10
2018-07-15T02:23:53.030Z,14.00
2018-07-15T02:26:21.800Z,14.00
2018-07-15T02:28:50.662Z,14.00
2018-07-15T02:31:19.343Z,14.00
2018-07-15T02:33:48.072Z,13.90
2018-07-15T02:36:16.797Z,14.00
2018-07-15T02:38:45.484Z,14.00
2018-07-15T02:41:14.237Z,13.90
2018-07-15T02:43:43.004Z,13.90
2018-07-15T02:46:11.769Z,13.90
2018-07-15T02:48:40.495Z,13.90
2018-07-15T02:51:09.225Z,14.00
2018-07-15T02:53:37.960Z,13.90
2018-07-15T02:56:06.816Z,13.90
2018-07-15T02:58:35.509Z,13.90
2018-07-15T03:01:04.266Z,13.90
2018-07-15T03:03:32.972Z,13.80
2018-07-15T03:06:01.657Z,13.80
2018-07-15T03:08:30.373Z,13.90
2018-07-15T03:10:59.104Z,13.80
2018-07-15T03:13:27.883Z,13.90
2018-07-15T03:15:56.610Z,13.90
2018-07-15T03:18:25.548Z,13.90
2018-07-15T03:20:54.316Z,13.90
2018-07-15T03:23:23.007Z,13.90
2018-07-15T03:25:51.746Z,14.00
2018-07-15T03:28:20.461Z,14.00
2018-07-15T03:30:49.197Z,14.10
2018-07-15T03:33:17.923Z,14.20
2018-07-15T03:35:46.612Z,14.30
2018-07-15T03:38:15.360Z,14.30
2018-07-15T03:40:44.108Z,14.40
2018-07-15T03:43:12.828Z,14.50
2018-07-15T03:45:41.532Z,14.50
2018-07-15T03:48:10.293Z,14.60
2018-07-15T03:50:39.016Z,14.60
2018-07-15T03:53:07.737Z,14.60
2018-07-15T03:55:36.487Z,14.60
2018-07-15T03:58:05.371Z,14.60
2018-07-15T04:00:34.113Z,14.60
2018-07-15T04:03:02.890Z,14.60
2018-07-15T04:05:31.633Z,14.50
2018-07-15T04:10:28.692Z,14.50
2018-07-15T04:12:57.381Z,14.50
2018-07-15T04:15:26.120Z,14.50
2018-07-15T04:18:11.397Z,14.40
2018-07-15T04:20:40.121Z,14.40
2018-07-15T04:23:08.889Z,14.50
2018-07-15T04:25:37.634Z,14.50
2018-07-15T04:28:06.372Z,14.60
2018-07-15T04:30:35.064Z,14.80
2018-07-15T04:33:03.779Z,14.90
2018-07-15T04:35:32.474Z,14.90
2018-07-15T04:38:01.245Z,15.00
2018-07-15T04:40:29.979Z,15.20
2018-07-15T04:42:58.722Z,15.30
2018-07-15T04:45:27.455Z,15.50
2018-07-15T04:47:56.160Z,15.70
2018-07-15T04:50:24.896Z,15.90
2018-07-15T04:52:53.613Z,16.10
2018-07-15T04:55:22.328Z,16.20
2018-07-15T04:57:50.988Z,16.40
2018-07-15T05:00:19.653Z,16.50
2018-07-15T05:02:48.361Z,16.60
2018-07-15T05:05:17.041Z,16.70
2018-07-15T05:07:45.765Z,16.70
2018-07-15T05:10:14.476Z,17.00
2018-07-15T05:12:43.276Z,17.00
2018-07-15T05:15:12.084Z,17.10
2018-07-15T05:17:40.805Z,17.10
2018-07-15T05:20:09.584Z,17.30
2018-07-15T05:22:38.261Z,17.40
2018-07-15T05:25:07.085Z,17.50
2018-07-15T05:27:35.740Z,17.60
2018-07-15T05:30:05.150Z,17.70
2018-07-15T05:32:33.888Z,17.90
2018-07-15T05:35:02.790Z,18.00
2018-07-15T05:37:31.449Z,18.10
2018-07-15T05:40:01.198Z,18.10
2018-07-15T05:42:29.906Z,18.20
2018-07-15T05:44:58.642Z,18.50
2018-07-15T05:47:27.403Z,18.40
2018-07-15T05:49:56.201Z,18.50
2018-07-15T05:52:25.044Z,18.70
2018-07-15T05:54:53.753Z,18.70
2018-07-15T05:57:22.458Z,18.70
2018-07-15T05:59:51.264Z,18.90
2018-07-15T06:02:19.949Z,19.00
2018-07-15T06:04:48.623Z,19.10
2018-07-15T06:07:17.329Z,19.20
2018-07-15T06:09:46.144Z,19.20
2018-07-15T06:12:14.873Z,19.30
2018-07-15T06:14:43.528Z,19.50
2018-07-15T06:17:12.537Z,19.90
2018-07-15T06:19:41.168Z,20.00
2018-07-15T06:22:09.851Z,20.10
2018-07-15T06:24:38.554Z,20.50
2018-07-15T06:27:07.280Z,20.90
2018-07-15T06:29:36.011Z,21.00
2018-07-15T06:32:04.787Z,21.30
2018-07-15T06:34:33.480Z,21.60
2018-07-15T06:37:02.370Z,21.70
2018-07-15T06:39:31.085Z,21.80
2018-07-15T06:41:59.882Z,22.10
2018-07-15T06:44:28.598Z,22.60
2018-07-15T06:46:57.442Z,23.00
2018-07-15T06:49:26.102Z,23.30
2018-07-15T06:51:54.824Z,24.00
2018-07-15T06:54:23.577Z,24.90
2018-07-15T06:56:52.275Z,25.50
2018-07-15T06:59:21.048Z,26.00
2018-07-15T07:01:50.095Z,26.10
2018-07-15T07:04:18.790Z,26.10
2018-07-15T07:06:47.523Z,26.40
2018-07-15T07:09:16.734Z,26.30
2018-07-15T07:11:45.413Z,26.70
2018-07-15T07:14:14.180Z,27.00
2018-07-15T07:16:42.863Z,27.10
2018-07-15T07:19:11.650Z,27.00
2018-07-15T07:21:40.393Z,27.50
2018-07-15T07:24:09.091Z,28.30
2018-07-15T07:26:37.809Z,28.00
2018-07-15T07:29:06.528Z,27.60
2018-07-15T07:31:35.541Z,28.20
2018-07-15T07:34:04.252Z,28.70
2018-07-15T07:36:33.231Z,28.60
2018-07-15T07:39:02.103Z,29.50
2018-07-15T07:41:30.801Z,29.20
2018-07-15T07:43:59.481Z,29.30
2018-07-15T07:46:28.173Z,29.80
2018-07-15T07:48:56.816Z,30.40
2018-07-15T07:51:25.495Z,29.90
2018-07-15T07:53:54.225Z,29.10
2018-07-15T07:56:22.967Z,29.30
2018-07-15T07:58:51.712Z,30.20
2018-07-15T08:01:20.527Z,30.50
2018-07-15T08:03:49.339Z,30.70
2018-07-15T08:06:18.339Z,30.50
2018-07-15T08:08:47.014Z,30.00
2018-07-15T08:11:15.797Z,30.20
2018-07-15T08:13:44.670Z,29.80
2018-07-15T08:16:13.553Z,29.90
2018-07-15T08:18:42.301Z,30.90
2018-07-15T08:21:11.001Z,30.50
2018-07-15T08:23:39.864Z,29.00
2018-07-15T08:26:08.848Z,28.20
2018-07-15T08:28:37.562Z,28.40
2018-07-15T08:31:10.532Z,29.20
2018-07-15T08:33:39.516Z,29.20
2018-07-15T08:36:08.497Z,29.30
2018-07-15T08:38:37.196Z,29.00
2018-07-15T08:41:06.286Z,28.80
2018-07-15T08:43:35.110Z,28.80
2018-07-15T08:46:03.931Z,29.10
2018-07-15T08:48:32.949Z,30.40
2018-07-15T08:51:01.706Z,30.80
2018-07-15T08:53:30.819Z,30.50
2018-07-15T08:55:59.546Z,29.90
2018-07-15T08:58:28.278Z,29.30
2018-07-15T09:00:57.012Z,28.50
2018-07-15T09:03:25.805Z,28.80
2018-07-15T09:05:54.555Z,29.20
2018-07-15T09:08:24.012Z,29.40
2018-07-15T09:10:52.694Z,29.40
2018-07-15T09:15:49.730Z,29.60
2018-07-15T09:18:18.446Z,30.10
2018-07-15T09:20:47.140Z,30.80
2018-07-15T09:23:15.902Z,31.10
2018-07-15T09:25:44.592Z,31.80
2018-07-15T09:28:13.262Z,32.10
2018-07-15T09:30:41.973Z,32.10
2018-07-15T09:33:10.699Z,31.60
2018-07-15T09:35:39.567Z,30.80
2018-07-15T09:38:08.452Z,31.20
2018-07-15T09:40:37.217Z,32.10
2018-07-15T09:43:06.030Z,32.10
2018-07-15T09:45:35.282Z,32.00
2018-07-15T09:48:04.167Z,32.20
2018-07-15T09:50:32.896Z,32.70
2018-07-15T09:53:01.593Z,32.50
2018-07-15T09:55:30.291Z,32.30
2018-07-15T09:57:59.233Z,33.00
2018-07-15T10:00:33.186Z,32.70
2018-07-15T10:03:02.285Z,32.80
2018-07-15T10:05:31.319Z,33.60
2018-07-15T10:08:00.266Z,32.70
2018-07-15T10:10:29.293Z,31.80
2018-07-15T10:12:57.993Z,31.50
2018-07-15T10:15:26.708Z,31.60
2018-07-15T10:17:55.396Z,31.60
2018-07-15T10:20:24.127Z,31.70
2018-07-15T10:22:52.866Z,32.10
2018-07-15T10:25:22.039Z,32.10
2018-07-15T10:27:50.758Z,32.20
2018-07-15T10:30:19.490Z,32.10
2018-07-15T10:32:48.185Z,32.40
2018-07-15T10:35:16.920Z,32.00
2018-07-15T10:37:45.697Z,31.60
2018-07-15T10:40:14.493Z,31.70
2018-07-15T10:42:43.331Z,31.80
2018-07-15T10:45:12.293Z,31.80
2018-07-15T10:47:40.968Z,32.00
2018-07-15T10:50:09.965Z,32.20
2018-07-15T10:52:39.175Z,32.10
2018-07-15T10:57:44.774Z,31.40
2018-07-15T11:00:14.542Z,31.10
2018-07-15T11:02:44.047Z,31.50
2018-07-15T11:05:17.540Z,31.20
2018-07-15T11:07:47.741Z,31.40
2018-07-15T11:10:32.645Z,31.60
2018-07-15T11:13:06.548Z,31.30
2018-07-15T11:15:39.575Z,31.00
2018-07-15T11:20:37.919Z,31.20
2018-07-15T11:23:07.068Z,30.90
2018-07-15T11:25:36.249Z,31.40
2018-07-15T11:28:05.620Z,31.40
2018-07-15T11:30:36.454Z,31.30
2018-07-15T11:33:05.674Z,31.50
2018-07-15T11:35:37.135Z,31.90
2018-07-15T11:38:06.396Z,31.80
2018-07-15T11:40:37.568Z,32.00
2018-07-15T11:43:19.935Z,31.40
2018-07-15T11:45:49.009Z,30.80
2018-07-15T11:48:21.771Z,30.40
2018-07-15T11:50:51.307Z,30.20
2018-07-15T11:53:20.328Z,30.00
2018-07-15T11:55:49.325Z,29.70
2018-07-15T12:01:04.555Z,28.80
2018-07-15T12:03:34.083Z,28.40
2018-07-15T12:06:03.516Z,28.30
2018-07-15T12:08:32.826Z,28.20
2018-07-15T12:11:01.986Z,28.20
2018-07-15T12:13:49.273Z,28.10
2018-07-15T12:16:19.243Z,28.10
2018-07-15T12:18:48.470Z,27.90
2018-07-15T12:21:17.710Z,27.90
2018-07-15T12:23:46.982Z,27.80
2018-07-15T12:26:16.249Z,27.60
2018-07-15T12:29:01.993Z,27.50
